createdAt,value
2017-06-01T00:00:03.105Z,0
2017-06-01T00:01:02.791Z,0
2017-06-01T00:02:02.477Z,0
2017-06-01T00:03:03.082Z,0
2017-06-01T00:04:03.067Z,0
2017-06-01T00:05:03.057Z,0
2017-06-01T00:06:03.046Z,0
2017-06-01T00:07:02.740Z,0
2017-06-01T00:08:03.031Z,0
2017-06-01T00:09:03.090Z,0
2017-06-01T00:10:03.013Z,0
2017-06-01T00:11:03.021Z,0
2017-06-01T00:12:02.996Z,0
2017-06-01T00:13:02.990Z,0
2017-06-01T00:14:02.676Z,0
2017-06-01T00:15:02.667Z,0
2017-06-01T00:16:02.661Z,0
2017-06-01T00:17:02.647Z,0
2017-06-01T00:18:02.939Z,0
2017-06-01T00:19:02.630Z,0
2017-06-01T00:20:02.657Z,0
2017-06-01T00:21:02.922Z,0
2017-06-01T00:22:02.908Z,0
2017-06-01T00:23:02.898Z,0
2017-06-01T00:24:02.889Z,0
2017-06-01T00:25:02.584Z,0
2017-06-01T00:26:02.564Z,0
2017-06-01T00:27:02.559Z,0
2017-06-01T00:28:02.555Z,0
2017-06-01T00:29:02.915Z,0
2017-06-01T00:30:02.837Z,0
2017-06-01T00:31:02.824Z,0
2017-06-01T00:32:02.515Z,0
2017-06-01T00:33:02.510Z,0
2017-06-01T00:34:02.499Z,0
2017-06-01T00:35:02.799Z,0
2017-06-01T00:36:02.481Z,0
2017-06-01T00:37:02.778Z,0
2017-06-01T00:38:02.763Z,0
2017-06-01T00:39:02.454Z,0
2017-06-01T00:40:02.445Z,0
2017-06-01T00:41:02.438Z,0
2017-06-01T00:42:02.426Z,0
2017-06-01T00:43:02.719Z,0
2017-06-01T00:44:02.765Z,0
2017-06-01T00:45:02.702Z,0
2017-06-01T00:46:02.391Z,0
2017-06-01T00:47:02.679Z,0
2017-06-01T00:48:02.463Z,0
2017-06-01T00:49:02.361Z,0
2017-06-01T00:50:02.366Z,0
2017-06-01T00:51:02.649Z,0
2017-06-01T00:52:02.337Z,0
2017-06-01T00:53:02.631Z,0
2017-06-01T00:54:02.316Z,0
2017-06-01T00:55:02.313Z,0
2017-06-01T00:56:02.306Z,0
2017-06-01T00:57:02.292Z,0
2017-06-01T00:58:02.284Z,0
2017-06-01T00:59:02.278Z,0
2017-06-01T01:00:02.568Z,0
2017-06-01T01:01:02.258Z,0
2017-06-01T01:02:02.556Z,0
2017-06-01T01:03:02.545Z,0
2017-06-01T01:04:02.238Z,0
2017-06-01T01:05:02.537Z,0
2017-06-01T01:06:02.222Z,0
2017-06-01T01:07:02.509Z,0
2017-06-01T01:08:02.499Z,0
2017-06-01T01:09:02.488Z,0
2017-06-01T01:10:02.490Z,0
2017-06-01T01:11:02.474Z,0
2017-06-01T01:12:02.467Z,0
2017-06-01T01:13:02.456Z,0
2017-06-01T01:14:02.447Z,0
2017-06-01T01:15:02.446Z,0
2017-06-01T01:16:02.134Z,0
2017-06-01T01:17:01.821Z,0
2017-06-01T01:18:02.114Z,0
2017-06-01T01:19:02.107Z,0
2017-06-01T01:20:02.535Z,0
2017-06-01T01:21:02.398Z,0
2017-06-01T01:22:02.385Z,0
2017-06-01T01:23:02.374Z,0
2017-06-01T01:24:02.364Z,0
2017-06-01T01:25:02.362Z,0
2017-06-01T01:26:02.346Z,0
2017-06-01T01:27:02.343Z,0
2017-06-01T01:28:02.036Z,0
2017-06-01T01:29:02.324Z,0
2017-06-01T01:30:02.334Z,0
2017-06-01T01:31:02.310Z,0
2017-06-01T01:32:02.301Z,0
2017-06-01T01:33:02.291Z,0
2017-06-01T01:34:02.284Z,0
2017-06-01T01:35:02.275Z,0
2017-06-01T01:36:01.964Z,0
2017-06-01T01:37:02.255Z,0
2017-06-01T01:38:02.250Z,0
2017-06-01T01:39:01.944Z,0
2017-06-01T01:40:02.235Z,0
2017-06-01T01:41:02.223Z,0
2017-06-01T01:42:02.218Z,0
2017-06-01T01:43:01.906Z,0
2017-06-01T01:44:02.208Z,0
2017-06-01T01:45:01.895Z,0
2017-06-01T01:46:02.196Z,0
2017-06-01T01:47:02.201Z,0
2017-06-01T01:48:02.167Z,0
2017-06-01T01:49:02.157Z,0
2017-06-01T01:50:01.845Z,0
2017-06-01T01:51:02.149Z,0
2017-06-01T01:52:02.131Z,0
2017-06-01T01:53:02.122Z,0
2017-06-01T01:54:01.817Z,0
2017-06-01T01:55:01.503Z,0
2017-06-01T01:56:01.797Z,0
2017-06-01T01:57:02.089Z,0
2017-06-01T01:58:02.179Z,0
2017-06-01T01:59:02.072Z,0
2017-06-01T02:00:02.113Z,0
2017-06-01T02:01:02.056Z,0
2017-06-01T02:02:02.044Z,0
2017-06-01T02:03:02.039Z,0
2017-06-01T02:04:02.024Z,0
2017-06-01T02:05:02.035Z,0
2017-06-01T02:06:01.711Z,0
2017-06-01T02:07:02.003Z,0
2017-06-01T02:08:01.995Z,0
2017-06-01T02:09:01.683Z,0
2017-06-01T02:10:01.971Z,0
2017-06-01T02:11:01.967Z,0
2017-06-01T02:12:01.667Z,0
2017-06-01T02:13:01.942Z,0
2017-06-01T02:14:01.935Z,0
2017-06-01T02:15:01.926Z,0
2017-06-01T02:16:01.615Z,0
2017-06-01T02:17:01.904Z,0
2017-06-01T02:18:01.895Z,0
2017-06-01T02:19:01.284Z,0
2017-06-01T02:20:01.898Z,0
2017-06-01T02:21:01.872Z,0
2017-06-01T02:22:01.884Z,0
2017-06-01T02:23:01.850Z,0
2017-06-01T02:24:01.837Z,0
2017-06-01T02:25:01.828Z,0
2017-06-01T02:26:01.820Z,0
2017-06-01T02:27:01.810Z,0
2017-06-01T02:28:01.495Z,0
2017-06-01T02:29:01.787Z,0
2017-06-01T02:30:01.477Z,0
2017-06-01T02:31:01.467Z,0
2017-06-01T02:32:01.456Z,0
2017-06-01T02:33:01.452Z,0
2017-06-01T02:34:01.804Z,0
2017-06-01T02:35:01.429Z,0
2017-06-01T02:36:01.413Z,0
2017-06-01T02:37:01.710Z,0
2017-06-01T02:38:01.697Z,0
2017-06-01T02:39:01.689Z,0
2017-06-01T02:40:01.675Z,0
2017-06-01T02:41:01.671Z,0
2017-06-01T02:42:01.660Z,0
2017-06-01T02:43:01.351Z,0
2017-06-01T02:44:01.338Z,0
2017-06-01T02:45:01.627Z,0
2017-06-01T02:46:01.615Z,0
2017-06-01T02:47:01.600Z,4
2017-06-01T02:48:01.592Z,4
2017-06-01T02:49:00.985Z,4
2017-06-01T02:50:01.569Z,0
2017-06-01T02:51:01.565Z,0
2017-06-01T02:52:01.556Z,4
2017-06-01T02:53:01.550Z,4
2017-06-01T02:54:01.533Z,4
2017-06-01T02:55:01.523Z,4
2017-06-01T02:56:01.517Z,4
2017-06-01T02:57:01.198Z,8
2017-06-01T02:58:01.494Z,8
2017-06-01T02:59:01.482Z,8
2017-06-01T03:00:00.869Z,8
2017-06-01T03:01:01.463Z,8
2017-06-01T03:02:01.149Z,12
2017-06-01T03:03:01.440Z,12
2017-06-01T03:04:01.426Z,16
2017-06-01T03:05:01.418Z,16
2017-06-01T03:06:01.411Z,20
2017-06-01T03:07:01.410Z,24
2017-06-01T03:08:01.414Z,24
2017-06-01T03:09:01.378Z,28
2017-06-01T03:10:01.402Z,32
2017-06-01T03:11:01.363Z,36
2017-06-01T03:12:01.349Z,40
2017-06-01T03:13:01.338Z,44
2017-06-01T03:14:01.328Z,52
2017-06-01T03:15:01.321Z,56
2017-06-01T03:16:01.315Z,60
2017-06-01T03:17:00.993Z,68
2017-06-01T03:18:00.677Z,72
2017-06-01T03:19:01.274Z,80
2017-06-01T03:20:01.259Z,88
2017-06-01T03:21:01.254Z,96
2017-06-01T03:22:01.244Z,104
2017-06-01T03:23:01.234Z,116
2017-06-01T03:24:01.227Z,120
2017-06-01T03:25:00.907Z,128
2017-06-01T03:26:01.200Z,140
2017-06-01T03:27:01.194Z,152
2017-06-01T03:28:01.178Z,160
2017-06-01T03:29:01.171Z,172
2017-06-01T03:30:00.855Z,188
2017-06-01T03:31:01.146Z,204
2017-06-01T03:32:00.838Z,224
2017-06-01T03:33:00.827Z,240
2017-06-01T03:34:00.814Z,260
2017-06-01T03:35:01.103Z,280
2017-06-01T03:36:00.793Z,300
2017-06-01T03:37:01.079Z,328
2017-06-01T03:38:01.075Z,356
2017-06-01T03:39:00.762Z,392
2017-06-01T03:40:00.752Z,436
2017-06-01T03:41:00.739Z,480
2017-06-01T03:42:00.731Z,524
2017-06-01T03:43:00.718Z,560
2017-06-01T03:44:00.704Z,600
2017-06-01T03:45:00.996Z,636
2017-06-01T03:46:00.692Z,668
2017-06-01T03:47:00.969Z,708
2017-06-01T03:48:00.958Z,748
2017-06-01T03:49:00.953Z,788
2017-06-01T03:50:00.642Z,824
2017-06-01T03:51:00.932Z,864
2017-06-01T03:52:00.927Z,916
2017-06-01T03:53:00.908Z,972
2017-06-01T03:54:00.903Z,1036
2017-06-01T03:55:00.892Z,1096
2017-06-01T03:56:00.879Z,1144
2017-06-01T03:57:00.866Z,1148
2017-06-01T03:58:00.855Z,1176
2017-06-01T03:59:00.546Z,1268
2017-06-01T04:00:00.835Z,1360
2017-06-01T04:01:00.833Z,1420
2017-06-01T04:02:00.815Z,1472
2017-06-01T04:03:00.501Z,1532
2017-06-01T04:04:00.796Z,1592
2017-06-01T04:05:00.779Z,1652
2017-06-01T04:06:00.772Z,1720
2017-06-01T04:07:00.755Z,1796
2017-06-01T04:08:00.450Z,1868
2017-06-01T04:09:00.741Z,1928
2017-06-01T04:10:00.732Z,1976
2017-06-01T04:11:00.724Z,2016
2017-06-01T04:12:00.726Z,2052
2017-06-01T04:13:00.700Z,2092
2017-06-01T04:14:00.700Z,2132
2017-06-01T04:15:00.681Z,2176
2017-06-01T04:16:00.366Z,2224
2017-06-01T04:17:00.355Z,2276
2017-06-01T04:18:00.673Z,2356
2017-06-01T04:19:00.335Z,2472
2017-06-01T04:20:00.329Z,2608
2017-06-01T04:21:00.636Z,2740
2017-06-01T04:22:00.611Z,2848
2017-06-01T04:23:00.595Z,2936
2017-06-01T04:24:00.592Z,3036
2017-06-01T04:25:00.572Z,3156
2017-06-01T04:26:00.564Z,3280
2017-06-01T04:27:00.554Z,3420
2017-06-01T04:28:00.539Z,3592
2017-06-01T04:29:00.531Z,3780
2017-06-01T04:30:00.522Z,3988
2017-06-01T04:31:00.517Z,4208
2017-06-01T04:32:00.504Z,4428
2017-06-01T04:33:00.184Z,4628
2017-06-01T04:34:00.488Z,4796
2017-06-01T04:35:00.469Z,4928
2017-06-01T04:36:00.154Z,5048
2017-06-01T04:37:00.446Z,5184
2017-06-01T04:38:00.436Z,5356
2017-06-01T04:39:00.425Z,5568
2017-06-01T04:40:00.416Z,5824
2017-06-01T04:40:59.803Z,6100
2017-06-01T04:42:00.097Z,6376
2017-06-01T04:43:00.386Z,6636
2017-06-01T04:44:00.376Z,6872
2017-06-01T04:45:00.065Z,7072
2017-06-01T04:45:59.750Z,7224
2017-06-01T04:47:00.037Z,7308
2017-06-01T04:48:00.333Z,7344
2017-06-01T04:49:00.321Z,7352
2017-06-01T04:49:59.703Z,7324
2017-06-01T04:51:00.301Z,7348
2017-06-01T04:52:00.289Z,7456
2017-06-01T04:53:00.286Z,7708
2017-06-01T04:53:59.665Z,8040
2017-06-01T04:55:00.261Z,8340
2017-06-01T04:55:59.648Z,8568
2017-06-01T04:56:59.636Z,8508
2017-06-01T04:57:59.627Z,8936
2017-06-01T04:58:59.669Z,9412
2017-06-01T04:59:59.908Z,9172
2017-06-01T05:00:59.901Z,9292
2017-06-01T05:02:00.197Z,9840
2017-06-01T05:03:00.182Z,10236
2017-06-01T05:03:59.887Z,10432
2017-06-01T05:04:59.859Z,10904
2017-06-01T05:05:59.848Z,10760
2017-06-01T05:07:00.146Z,11196
2017-06-01T05:07:59.835Z,11840
2017-06-01T05:08:59.818Z,11180
2017-06-01T05:10:00.115Z,11184
2017-06-01T05:10:59.799Z,11344
2017-06-01T05:12:00.098Z,11692
2017-06-01T05:13:00.080Z,11620
2017-06-01T05:13:59.771Z,11460
2017-06-01T05:14:59.762Z,10656
2017-06-01T05:15:59.754Z,10232
2017-06-01T05:16:59.740Z,10472
2017-06-01T05:18:00.033Z,10508
2017-06-01T05:19:00.021Z,10092
2017-06-01T05:19:59.706Z,11372
2017-06-01T05:20:59.701Z,12436
2017-06-01T05:21:59.693Z,13560
2017-06-01T05:22:59.684Z,22048
2017-06-01T05:23:59.678Z,26496
2017-06-01T05:24:59.693Z,24352
2017-06-01T05:25:59.658Z,19968
2017-06-01T05:26:59.648Z,20256
2017-06-01T05:27:59.637Z,20384
2017-06-01T05:28:59.632Z,21632
2017-06-01T05:29:59.621Z,23616
2017-06-01T05:30:59.610Z,26432
2017-06-01T05:31:59.615Z,25344
2017-06-01T05:32:59.621Z,24288
2017-06-01T05:33:59.898Z,20704
2017-06-01T05:34:59.878Z,20384
2017-06-01T05:35:59.574Z,20512
2017-06-01T05:36:59.869Z,19392
2017-06-01T05:37:59.851Z,19264
2017-06-01T05:38:59.848Z,20608
2017-06-01T05:39:59.839Z,22016
2017-06-01T05:40:59.836Z,21984
2017-06-01T05:41:59.824Z,22048
2017-06-01T05:42:59.813Z,26240
2017-06-01T05:43:59.806Z,27072
2017-06-01T05:44:59.489Z,38368
2017-06-01T05:45:59.790Z,45280
2017-06-01T05:46:59.784Z,55968
2017-06-01T05:47:59.770Z,60032
2017-06-01T05:48:59.761Z,53536
2017-06-01T05:49:59.751Z,33760
2017-06-01T05:50:59.748Z,42464
2017-06-01T05:51:59.738Z,36064
2017-06-01T05:52:59.747Z,32000
2017-06-01T05:53:59.720Z,33952
2017-06-01T05:54:59.710Z,29216
2017-06-01T05:55:59.701Z,26528
2017-06-01T05:56:59.691Z,25440
2017-06-01T05:57:59.682Z,24544
2017-06-01T05:58:59.676Z,24352
2017-06-01T05:59:59.060Z,24320
2017-06-01T06:00:59.359Z,23488
2017-06-01T06:01:59.652Z,23488
2017-06-01T06:02:59.041Z,22752
2017-06-01T06:03:59.641Z,21792
2017-06-01T06:04:59.625Z,21952
2017-06-01T06:05:59.616Z,22976
2017-06-01T06:06:59.610Z,24928
2017-06-01T06:07:59.300Z,26304
2017-06-01T06:08:59.588Z,28000
2017-06-01T06:09:59.587Z,32064
2017-06-01T06:10:59.581Z,38624
2017-06-01T06:11:59.570Z,46368
2017-06-01T06:12:59.570Z,52320
2017-06-01T06:13:58.651Z,55360
2017-06-01T06:14:58.943Z,52864
2017-06-01T06:15:59.237Z,46048
2017-06-01T06:16:59.238Z,38944
2017-06-01T06:17:59.588Z,34592
2017-06-01T06:18:59.520Z,31616
2017-06-01T06:19:59.509Z,28352
2017-06-01T06:20:59.511Z,27040
2017-06-01T06:21:59.493Z,27168
2017-06-01T06:22:59.486Z,28224
2017-06-01T06:23:59.479Z,29920
2017-06-01T06:24:59.174Z,31520
2017-06-01T06:25:59.479Z,33536
2017-06-01T06:26:59.461Z,35680
2017-06-01T06:27:59.463Z,37152
2017-06-01T06:28:59.451Z,35648
2017-06-01T06:29:59.441Z,35872
2017-06-01T06:30:59.432Z,36832
2017-06-01T06:31:59.429Z,37632
2017-06-01T06:32:59.115Z,36000
2017-06-01T06:33:59.421Z,31712
2017-06-01T06:34:59.412Z,29120
2017-06-01T06:35:59.104Z,28512
2017-06-01T06:36:59.118Z,28576
2017-06-01T06:37:59.395Z,28768
2017-06-01T06:38:59.382Z,28608
2017-06-01T06:39:59.382Z,28608
2017-06-01T06:40:59.365Z,28352
2017-06-01T06:41:59.567Z,28384
2017-06-01T06:42:59.357Z,28448
2017-06-01T06:43:59.044Z,28416
2017-06-01T06:44:59.038Z,28384
2017-06-01T06:45:59.038Z,28864
2017-06-01T06:46:59.024Z,29920
2017-06-01T06:47:59.538Z,31296
2017-06-01T06:48:59.008Z,32832
2017-06-01T06:49:59.307Z,34496
2017-06-01T06:50:59.003Z,36288
2017-06-01T06:51:59.497Z,38208
2017-06-01T06:52:59.284Z,39872
2017-06-01T06:53:59.273Z,41248
2017-06-01T06:54:58.970Z,42752
2017-06-01T06:55:59.260Z,43936
2017-06-01T06:56:59.259Z,44896
2017-06-01T06:57:59.250Z,45632
2017-06-01T06:58:59.246Z,46176
2017-06-01T06:59:59.242Z,46368
2017-06-01T07:00:58.934Z,46784
2017-06-01T07:01:59.226Z,47008
2017-06-01T07:02:59.224Z,47264
2017-06-01T07:03:59.213Z,48064
2017-06-01T07:04:59.260Z,48416
2017-06-01T07:05:59.198Z,48768
2017-06-01T07:06:59.194Z,49728
2017-06-01T07:07:59.188Z,51584
2017-06-01T07:08:59.184Z,53120
2017-06-01T07:09:59.178Z,55296
2017-06-01T07:10:59.172Z,58656
2017-06-01T07:11:59.167Z,62240
2017-06-01T07:12:59.156Z,65632
2017-06-01T07:13:59.153Z,71808
2017-06-01T07:15:13.762Z,80640
2017-06-01T07:15:59.362Z,80256
2017-06-01T07:16:59.136Z,81728
2017-06-01T07:17:59.126Z,77696
2017-06-01T07:18:59.126Z,75776
2017-06-01T07:19:59.129Z,80448
2017-06-01T07:20:59.016Z,82496
2017-06-01T07:21:59.111Z,66848
2017-06-01T07:23:12.996Z,59360
2017-06-01T07:23:58.801Z,56256
2017-06-01T07:24:59.097Z,53664
2017-06-01T07:25:58.489Z,50784
2017-06-01T07:26:58.983Z,47392
2017-06-01T07:27:58.677Z,44096
2017-06-01T07:28:59.073Z,40672
2017-06-01T07:29:58.466Z,37568
2017-06-01T07:30:58.757Z,34112
2017-06-01T07:31:58.751Z,30848
2017-06-01T07:32:58.953Z,28928
2017-06-01T07:33:59.046Z,28000
2017-06-01T07:34:59.040Z,26784
2017-06-01T07:35:59.036Z,25312
2017-06-01T07:36:59.031Z,24000
2017-06-01T07:37:59.029Z,23712
2017-06-01T07:38:58.713Z,25024
2017-06-01T07:39:59.023Z,26528
2017-06-01T07:40:58.707Z,28320
2017-06-01T07:41:58.692Z,29568
2017-06-01T07:42:58.692Z,30304
2017-06-01T07:43:58.680Z,30656
2017-06-01T07:44:58.678Z,30400
2017-06-01T07:45:58.972Z,25952
2017-06-01T07:46:58.966Z,22048
2017-06-01T07:47:58.655Z,24000
2017-06-01T07:48:58.653Z,31968
2017-06-01T07:49:58.939Z,36672
2017-06-01T07:50:58.933Z,39168
2017-06-01T07:51:58.925Z,40064
2017-06-01T07:52:58.312Z,27616
2017-06-01T07:53:58.599Z,25184
2017-06-01T07:54:58.597Z,22944
2017-06-01T07:55:58.892Z,20832
2017-06-01T07:56:58.875Z,18816
2017-06-01T07:57:58.868Z,17324
2017-06-01T07:58:58.875Z,16836
2017-06-01T08:00:11.940Z,16884
2017-06-01T08:00:59.051Z,17128
2017-06-01T08:01:58.600Z,17268
2017-06-01T08:02:58.525Z,17764
2017-06-01T08:03:58.508Z,18248
2017-06-01T08:04:58.804Z,19232
2017-06-01T08:05:58.488Z,20512
2017-06-01T08:06:58.182Z,22112
2017-06-01T08:07:58.171Z,24608
2017-06-01T08:08:58.762Z,28096
2017-06-01T08:10:12.342Z,32320
2017-06-01T08:10:58.441Z,35456
2017-06-01T08:11:58.134Z,37056
2017-06-01T08:12:58.421Z,36544
2017-06-01T08:13:58.110Z,39936
2017-06-01T08:14:58.703Z,44320
2017-06-01T08:15:58.705Z,49760
2017-06-01T08:16:58.421Z,49984
2017-06-01T08:17:58.675Z,50144
2017-06-01T08:18:58.368Z,38752
2017-06-01T08:19:58.655Z,33312
2017-06-01T08:20:58.346Z,33824
2017-06-01T08:21:58.340Z,33984
2017-06-01T08:22:58.026Z,32736
2017-06-01T08:23:58.009Z,37088
2017-06-01T08:24:58.303Z,34976
2017-06-01T08:25:58.298Z,31360
2017-06-01T08:26:58.587Z,29856
2017-06-01T08:27:58.277Z,25952
2017-06-01T08:28:58.263Z,20320
2017-06-01T08:29:58.255Z,18240
2017-06-01T08:30:58.244Z,18976
2017-06-01T08:31:58.575Z,20512
2017-06-01T08:32:58.423Z,22560
2017-06-01T08:33:58.519Z,23104
2017-06-01T08:34:58.504Z,21056
2017-06-01T08:35:58.501Z,18560
2017-06-01T08:36:58.485Z,17784
2017-06-01T08:37:58.671Z,19104
2017-06-01T08:38:58.669Z,22368
2017-06-01T08:39:58.456Z,25888
2017-06-01T08:40:58.443Z,26208
2017-06-01T08:41:57.830Z,27488
2017-06-01T08:42:58.330Z,30336
2017-06-01T08:43:58.615Z,33920
2017-06-01T08:44:58.407Z,38816
2017-06-01T08:45:58.398Z,40512
2017-06-01T08:46:58.088Z,41056
2017-06-01T08:47:58.074Z,41536
2017-06-01T08:48:58.063Z,42592
2017-06-01T08:49:58.356Z,43200
2017-06-01T08:50:58.349Z,47392
2017-06-01T08:51:58.336Z,47168
2017-06-01T08:52:58.025Z,44992
2017-06-01T08:53:57.711Z,47232
2017-06-01T08:54:58.303Z,45920
2017-06-01T08:55:57.995Z,40384
2017-06-01T08:56:58.289Z,33984
2017-06-01T08:57:58.282Z,31008
2017-06-01T08:58:58.267Z,28512
2017-06-01T08:59:58.254Z,27552
2017-06-01T09:00:57.947Z,28672
2017-06-01T09:01:58.242Z,30656
2017-06-01T09:02:58.228Z,32384
2017-06-01T09:03:58.220Z,33344
2017-06-01T09:04:58.215Z,32960
2017-06-01T09:05:58.207Z,33536
2017-06-01T09:06:58.199Z,33408
2017-06-01T09:07:57.887Z,35392
2017-06-01T09:08:57.882Z,33472
2017-06-01T09:09:57.571Z,34272
2017-06-01T09:10:58.163Z,34784
2017-06-01T09:11:58.074Z,34528
2017-06-01T09:12:58.147Z,34432
2017-06-01T09:13:58.414Z,35552
2017-06-01T09:14:58.132Z,38368
2017-06-01T09:15:58.119Z,40768
2017-06-01T09:16:58.116Z,43488
2017-06-01T09:17:58.101Z,45056
2017-06-01T09:18:58.097Z,47136
2017-06-01T09:19:58.085Z,46592
2017-06-01T09:20:58.282Z,47040
2017-06-01T09:21:58.071Z,46880
2017-06-01T09:22:58.063Z,47520
2017-06-01T09:23:58.052Z,44960
2017-06-01T09:24:58.043Z,40096
2017-06-01T09:25:58.036Z,39360
2017-06-01T09:26:58.028Z,44960
2017-06-01T09:27:58.020Z,42656
2017-06-01T09:28:58.013Z,40960
2017-06-01T09:29:57.699Z,40032
2017-06-01T09:30:57.991Z,39328
2017-06-01T09:31:57.686Z,39104
2017-06-01T09:32:57.979Z,37888
2017-06-01T09:33:57.969Z,36704
2017-06-01T09:34:57.663Z,36032
2017-06-01T09:35:57.657Z,34496
2017-06-01T09:36:57.645Z,32192
2017-06-01T09:37:57.933Z,28288
2017-06-01T09:38:57.326Z,26656
2017-06-01T09:39:57.919Z,24032
2017-06-01T09:40:57.647Z,26112
2017-06-01T09:41:57.679Z,31200
2017-06-01T09:42:57.912Z,35456
2017-06-01T09:44:11.223Z,37472
2017-06-01T09:44:57.271Z,39488
2017-06-01T09:45:57.562Z,41472
2017-06-01T09:46:57.552Z,42848
2017-06-01T09:47:57.540Z,44000
2017-06-01T09:48:57.269Z,45184
2017-06-01T09:50:11.414Z,47328
2017-06-01T09:50:57.818Z,55136
2017-06-01T09:51:57.809Z,66848
2017-06-01T09:52:57.799Z,82496
2017-06-01T09:53:57.711Z,100224
2017-06-01T09:54:57.481Z,99360
2017-06-01T09:55:57.476Z,93248
2017-06-01T09:56:57.471Z,86944
2017-06-01T09:57:57.759Z,82464
2017-06-01T09:58:57.450Z,79648
2017-06-01T09:59:57.739Z,65504
2017-06-01T10:00:57.736Z,81344
2017-06-01T10:01:57.727Z,60288
2017-06-01T10:02:57.419Z,70112
2017-06-01T10:03:57.407Z,101664
2017-06-01T10:04:57.405Z,127808
2017-06-01T10:05:57.095Z,123072
2017-06-01T10:06:57.390Z,122432
2017-06-01T10:07:57.392Z,124576
2017-06-01T10:08:57.678Z,121440
2017-06-01T10:09:57.370Z,121696
2017-06-01T10:10:57.665Z,122240
2017-06-01T10:11:57.661Z,120384
2017-06-01T10:12:57.652Z,124288
2017-06-01T10:13:57.353Z,121216
2017-06-01T10:14:57.650Z,132992
2017-06-01T10:15:57.337Z,134272
2017-06-01T10:16:57.635Z,133984
2017-06-01T10:17:57.655Z,135680
2017-06-01T10:18:57.627Z,137472
2017-06-01T10:19:57.614Z,138400
2017-06-01T10:20:57.317Z,142912
2017-06-01T10:21:57.309Z,147456
2017-06-01T10:22:57.606Z,153504
2017-06-01T10:23:57.609Z,157280
2017-06-01T10:24:57.303Z,134752
2017-06-01T10:25:57.598Z,55712
2017-06-01T10:26:57.592Z,54048
2017-06-01T10:27:57.598Z,53088
2017-06-01T10:28:57.593Z,59424
2017-06-01T10:29:56.983Z,66656
2017-06-01T10:30:57.594Z,120480
2017-06-01T10:31:57.586Z,60352
2017-06-01T10:32:57.579Z,58752
2017-06-01T10:33:57.581Z,65920
2017-06-01T10:34:57.280Z,94560
2017-06-01T10:35:57.272Z,75200
2017-06-01T10:36:57.571Z,61312
2017-06-01T10:37:57.261Z,53152
2017-06-01T10:38:57.563Z,60288
2017-06-01T10:39:57.564Z,72672
2017-06-01T10:40:57.554Z,85440
2017-06-01T10:41:57.251Z,91872
2017-06-01T10:42:57.546Z,95264
2017-06-01T10:43:57.552Z,112000
2017-06-01T10:44:57.538Z,173696
2017-06-01T10:45:57.539Z,172448
2017-06-01T10:46:57.237Z,174400
2017-06-01T10:47:57.230Z,200192
2017-06-01T10:48:57.531Z,197984
2017-06-01T10:49:57.527Z,148192
2017-06-01T10:50:57.521Z,96096
2017-06-01T10:51:57.518Z,101184
2017-06-01T10:52:57.217Z,167776
2017-06-01T10:53:57.222Z,203616
2017-06-01T10:54:57.512Z,192384
2017-06-01T10:55:57.510Z,170976
2017-06-01T10:56:57.510Z,185728
2017-06-01T10:57:57.515Z,137824
2017-06-01T10:58:57.202Z,82208
2017-06-01T10:59:57.503Z,71808
2017-06-01T11:00:57.196Z,65536
2017-06-01T11:01:57.490Z,61664
2017-06-01T11:02:57.486Z,58592
2017-06-01T11:03:56.884Z,59424
2017-06-01T11:04:57.487Z,60736
2017-06-01T11:05:57.484Z,63840
2017-06-01T11:06:57.182Z,58144
2017-06-01T11:07:57.478Z,50368
2017-06-01T11:08:57.476Z,47616
2017-06-01T11:09:57.474Z,52128
2017-06-01T11:10:57.473Z,57984
2017-06-01T11:11:57.163Z,59328
2017-06-01T11:12:57.484Z,59744
2017-06-01T11:13:57.459Z,54016
2017-06-01T11:14:57.451Z,50464
2017-06-01T11:15:57.450Z,53792
2017-06-01T11:16:57.447Z,49824
2017-06-01T11:17:56.838Z,41184
2017-06-01T11:18:57.437Z,43840
2017-06-01T11:19:56.833Z,41760
2017-06-01T11:20:57.131Z,44640
2017-06-01T11:21:57.429Z,56960
2017-06-01T11:22:57.426Z,65440
2017-06-01T11:23:57.417Z,71104
2017-06-01T11:24:57.420Z,72640
2017-06-01T11:25:56.804Z,71136
2017-06-01T11:26:57.405Z,68256
2017-06-01T11:27:57.406Z,66144
2017-06-01T11:28:57.396Z,68160
2017-06-01T11:29:57.399Z,74432
2017-06-01T11:30:57.393Z,79616
2017-06-01T11:31:57.090Z,79616
2017-06-01T11:32:57.387Z,75904
2017-06-01T11:33:57.078Z,66048
2017-06-01T11:34:57.381Z,75296
2017-06-01T11:35:57.092Z,75904
2017-06-01T11:36:57.370Z,56192
2017-06-01T11:37:57.367Z,47616
2017-06-01T11:38:57.064Z,46688
2017-06-01T11:39:57.058Z,49472
2017-06-01T11:40:57.057Z,52320
2017-06-01T11:41:56.749Z,52576
2017-06-01T11:42:57.349Z,53920
2017-06-01T11:43:57.343Z,60032
2017-06-01T11:44:56.736Z,70976
2017-06-01T11:45:56.736Z,88064
2017-06-01T11:46:57.028Z,103648
2017-06-01T11:47:57.019Z,107072
2017-06-01T11:48:57.320Z,95488
2017-06-01T11:49:56.717Z,104768
2017-06-01T11:50:57.013Z,137856
2017-06-01T11:51:57.304Z,88160
2017-06-01T11:52:57.002Z,86336
2017-06-01T11:53:57.001Z,90624
2017-06-01T11:54:56.997Z,79968
2017-06-01T11:55:56.994Z,76800
2017-06-01T11:56:57.290Z,85088
2017-06-01T11:57:56.984Z,76416
2017-06-01T11:58:57.280Z,76864
2017-06-01T11:59:57.278Z,74880
2017-06-01T12:00:57.268Z,59104
2017-06-01T12:01:57.262Z,61504
2017-06-01T12:02:57.268Z,68544
2017-06-01T12:03:57.258Z,75264
2017-06-01T12:04:56.953Z,97248
2017-06-01T12:05:56.955Z,116736
2017-06-01T12:06:56.342Z,116928
2017-06-01T12:07:57.243Z,121248
2017-06-01T12:08:57.241Z,149312
2017-06-01T12:09:56.936Z,88992
2017-06-01T12:10:57.234Z,82912
2017-06-01T12:11:56.923Z,86144
2017-06-01T12:12:57.224Z,82944
2017-06-01T12:13:57.272Z,158464
2017-06-01T12:14:56.918Z,70848
2017-06-01T12:15:57.214Z,50592
2017-06-01T12:16:57.213Z,46080
2017-06-01T12:17:57.210Z,47936
2017-06-01T12:18:56.901Z,42880
2017-06-01T12:19:57.202Z,42528
2017-06-01T12:20:57.197Z,42368
2017-06-01T12:21:57.190Z,42240
2017-06-01T12:22:57.180Z,40928
2017-06-01T12:23:57.185Z,39840
2017-06-01T12:24:57.186Z,39744
2017-06-01T12:25:57.173Z,37824
2017-06-01T12:26:57.164Z,38432
2017-06-01T12:27:57.158Z,42016
2017-06-01T12:28:57.159Z,45216
2017-06-01T12:29:56.850Z,44128
2017-06-01T12:30:57.144Z,41792
2017-06-01T12:31:57.145Z,41504
2017-06-01T12:32:57.141Z,41696
2017-06-01T12:33:57.135Z,42560
2017-06-01T12:34:56.820Z,42624
2017-06-01T12:35:57.125Z,40480
2017-06-01T12:36:56.813Z,41568
2017-06-01T12:37:57.110Z,42144
2017-06-01T12:38:57.106Z,40640
2017-06-01T12:39:57.100Z,39136
2017-06-01T12:40:57.102Z,39072
2017-06-01T12:41:56.789Z,38144
2017-06-01T12:42:57.079Z,36032
2017-06-01T12:43:57.079Z,34240
2017-06-01T12:44:56.771Z,33824
2017-06-01T12:45:57.066Z,33248
2017-06-01T12:46:56.760Z,32192
2017-06-01T12:47:57.053Z,31296
2017-06-01T12:48:56.755Z,30976
2017-06-01T12:49:56.438Z,31872
2017-06-01T12:50:56.739Z,33504
2017-06-01T12:51:56.742Z,34656
2017-06-01T12:52:57.022Z,35296
2017-06-01T12:53:56.721Z,34272
2017-06-01T12:54:56.717Z,33920
2017-06-01T12:55:56.715Z,35104
2017-06-01T12:56:56.704Z,36896
2017-06-01T12:57:57.008Z,37888
2017-06-01T12:58:56.389Z,36160
2017-06-01T12:59:56.684Z,35360
2017-06-01T13:00:56.986Z,35968
2017-06-01T13:01:56.978Z,38048
2017-06-01T13:02:56.972Z,38464
2017-06-01T13:03:56.365Z,37376
2017-06-01T13:04:56.057Z,36736
2017-06-01T13:05:56.958Z,35648
2017-06-01T13:06:56.958Z,34368
2017-06-01T13:07:56.343Z,34304
2017-06-01T13:08:56.945Z,35808
2017-06-01T13:09:56.942Z,37632
2017-06-01T13:10:56.632Z,39296
2017-06-01T13:11:56.626Z,40224
2017-06-01T13:12:56.622Z,41216
2017-06-01T13:13:56.313Z,42976
2017-06-01T13:14:56.908Z,46304
2017-06-01T13:15:56.602Z,47360
2017-06-01T13:16:56.904Z,47456
2017-06-01T13:17:56.893Z,45248
2017-06-01T13:18:56.892Z,42880
2017-06-01T13:19:56.583Z,40736